sensor_id;sensor_type;location;lat;lon;timestamp;temperature;humidity
31074;DHT22;17730;53.552;9.940;2023-03-24T00:00:45;11.40;82.10
31074;DHT22;17730;53.552;9.940;2023-03-24T00:03:10;11.50;61.20
31074;DHT22;17730;53.552;9.940;2023-03-24T00:05:36;11.50;49.00
31074;DHT22;17730;53.552;9.940;2023-03-24T00:08:03;11.40;47.40
31074;DHT22;17730;53.552;9.940;2023-03-24T00:10:29;11.50;76.70
31074;DHT22;17730;53.552;9.940;2023-03-24T00:12:59;11.50;33.90
31074;DHT22;17730;53.552;9.940;2023-03-24T00:15:24;11.50;46.50
31074;DHT22;17730;53.552;9.940;2023-03-24T00:17:50;11.50;26.90
31074;DHT22;17730;53.552;9.940;2023-03-24T00:20:17;11.50;63.90
31074;DHT22;17730;53.552;9.940;2023-03-24T00:22:45;11.50;99.90
31074;DHT22;17730;53.552;9.940;2023-03-24T00:25:16;11.40;99.90
31074;DHT22;17730;53.552;9.940;2023-03-24T00:27:42;11.50;99.90
31074;DHT22;17730;53.552;9.940;2023-03-24T00:30:09;11.50;99.90
31074;DHT22;17730;53.552;9.940;2023-03-24T00:32:35;11.50;99.90
31074;DHT22;17730;53.552;9.940;2023-03-24T00:35:04;11.50;99.90
31074;DHT22;17730;53.552;9.940;2023-03-24T00:37:30;11.50;99.90
31074;DHT22;17730;53.552;9.940;2023-03-24T00:39:55;11.50;99.90
31074;DHT22;17730;53.552;9.940;2023-03-24T00:42:21;11.50;99.90
31074;DHT22;17730;53.552;9.940;2023-03-24T00:44:46;11.50;99.90
31074;DHT22;17730;53.552;9.940;2023-03-24T00:47:12;11.50;99.90
31074;DHT22;17730;53.552;9.940;2023-03-24T00:49:37;11.40;99.90
31074;DHT22;17730;53.552;9.940;2023-03-24T00:52:13;11.40;99.90
31074;DHT22;17730;53.552;9.940;2023-03-24T00:54:40;11.40;99.90
31074;DHT22;17730;53.552;9.940;2023-03-24T00:57:06;11.40;99.90
31074;DHT22;17730;53.552;9.940;2023-03-24T00:59:32;11.40;99.90
31074;DHT22;17730;53.552;9.940;2023-03-24T01:02:02;11.40;99.90
31074;DHT22;17730;53.552;9.940;2023-03-24T01:04:28;11.40;99.90
31074;DHT22;17730;53.552;9.940;2023-03-24T01:06:54;11.30;1.00
31074;DHT22;17730;53.552;9.940;2023-03-24T01:09:22;11.30;1.00
31074;DHT22;17730;53.552;9.940;2023-03-24T01:11:48;11.30;1.00
31074;DHT22;17730;53.552;9.940;2023-03-24T01:14:13;11.30;1.00
31074;DHT22;17730;53.552;9.940;2023-03-24T01:16:39;11.30;1.00
31074;DHT22;17730;53.552;9.940;2023-03-24T01:19:06;11.30;1.00
31074;DHT22;17730;53.552;9.940;2023-03-24T01:21:33;11.20;5.60
31074;DHT22;17730;53.552;9.940;2023-03-24T01:23:59;11.20;19.70
31074;DHT22;17730;53.552;9.940;2023-03-24T01:26:26;11.10;31.60
31074;DHT22;17730;53.552;9.940;2023-03-24T01:28:52;11.10;48.00
31074;DHT22;17730;53.552;9.940;2023-03-24T01:31:17;11.10;61.30
31074;DHT22;17730;53.552;9.940;2023-03-24T01:33:43;11.10;69.60
31074;DHT22;17730;53.552;9.940;2023-03-24T01:36:08;11.10;76.20
31074;DHT22;17730;53.552;9.940;2023-03-24T01:38:34;11.10;81.80
31074;DHT22;17730;53.552;9.940;2023-03-24T01:40:59;11.10;88.90
31074;DHT22;17730;53.552;9.940;2023-03-24T01:43:26;11.10;93.00
31074;DHT22;17730;53.552;9.940;2023-03-24T01:49:04;11.10;95.60
31074;DHT22;17730;53.552;9.940;2023-03-24T01:51:23;11.10;97.00
31074;DHT22;17730;53.552;9.940;2023-03-24T01:56:28;11.00;97.90
31074;DHT22;17730;53.552;9.940;2023-03-24T01:58:57;11.00;98.60
31074;DHT22;17730;53.552;9.940;2023-03-24T02:01:23;11.00;99.60
31074;DHT22;17730;53.552;9.940;2023-03-24T02:03:54;11.00;99.90
31074;DHT22;17730;53.552;9.940;2023-03-24T02:06:21;11.00;99.90
31074;DHT22;17730;53.552;9.940;2023-03-24T02:08:50;11.00;99.90
31074;DHT22;17730;53.552;9.940;2023-03-24T02:11:17;11.00;99.90
31074;DHT22;17730;53.552;9.940;2023-03-24T02:13:42;11.00;99.90
31074;DHT22;17730;53.552;9.940;2023-03-24T02:16:27;11.00;99.90
31074;DHT22;17730;53.552;9.940;2023-03-24T02:31:49;11.00;99.90
31074;DHT22;17730;53.552;9.940;2023-03-24T02:40:01;11.10;99.90
31074;DHT22;17730;53.552;9.940;2023-03-24T02:45:04;11.00;99.90
31074;DHT22;17730;53.552;9.940;2023-03-24T02:53:07;11.00;99.90
31074;DHT22;17730;53.552;9.940;2023-03-24T02:55:39;10.90;99.90
31074;DHT22;17730;53.552;9.940;2023-03-24T02:58:08;10.90;99.90
31074;DHT22;17730;53.552;9.940;2023-03-24T03:00:44;11.00;99.90
31074;DHT22;17730;53.552;9.940;2023-03-24T03:06:03;11.00;99.90
31074;DHT22;17730;53.552;9.940;2023-03-24T03:08:31;11.00;99.90
31074;DHT22;17730;53.552;9.940;2023-03-24T03:10:58;11.00;99.90
31074;DHT22;17730;53.552;9.940;2023-03-24T03:13:25;11.00;99.90
31074;DHT22;17730;53.552;9.940;2023-03-24T03:15:53;11.00;99.90
31074;DHT22;17730;53.552;9.940;2023-03-24T03:20:50;11.00;99.90
31074;DHT22;17730;53.552;9.940;2023-03-24T03:26:01;11.00;99.90
31074;DHT22;17730;53.552;9.940;2023-03-24T03:28:31;11.00;99.90
31074;DHT22;17730;53.552;9.940;2023-03-24T03:30:58;11.00;99.90
31074;DHT22;17730;53.552;9.940;2023-03-24T03:33:27;11.00;99.90
31074;DHT22;17730;53.552;9.940;2023-03-24T03:36:02;11.00;99.90
31074;DHT22;17730;53.552;9.940;2023-03-24T03:39:14;11.00;99.90
31074;DHT22;17730;53.552;9.940;2023-03-24T03:41:14;11.00;99.90
31074;DHT22;17730;53.552;9.940;2023-03-24T03:43:42;11.10;99.90
31074;DHT22;17730;53.552;9.940;2023-03-24T03:46:08;11.10;99.90
31074;DHT22;17730;53.552;9.940;2023-03-24T03:48:33;11.20;99.90
31074;DHT22;17730;53.552;9.940;2023-03-24T03:51:00;11.20;99.90
31074;DHT22;17730;53.552;9.940;2023-03-24T03:53:27;11.20;99.90
31074;DHT22;17730;53.552;9.940;2023-03-24T03:55:55;11.30;99.90
31074;DHT22;17730;53.552;9.940;2023-03-24T03:58:21;11.30;99.90
31074;DHT22;17730;53.552;9.940;2023-03-24T04:00:47;11.30;99.90
31074;DHT22;17730;53.552;9.940;2023-03-24T04:05:43;11.60;99.90
31074;DHT22;17730;53.552;9.940;2023-03-24T04:08:16;11.60;99.90
31074;DHT22;17730;53.552;9.940;2023-03-24T04:10:50;11.60;99.90
31074;DHT22;17730;53.552;9.940;2023-03-24T04:16:13;11.70;99.90
31074;DHT22;17730;53.552;9.940;2023-03-24T04:29:34;11.80;99.90
31074;DHT22;17730;53.552;9.940;2023-03-24T04:32:50;11.80;99.90
31074;DHT22;17730;53.552;9.940;2023-03-24T04:34:57;11.80;99.90
31074;DHT22;17730;53.552;9.940;2023-03-24T04:37:27;11.80;99.90
31074;DHT22;17730;53.552;9.940;2023-03-24T04:39:57;11.80;99.90
31074;DHT22;17730;53.552;9.940;2023-03-24T04:45:19;11.80;99.90
31074;DHT22;17730;53.552;9.940;2023-03-24T04:47:46;11.80;99.90
31074;DHT22;17730;53.552;9.940;2023-03-24T04:50:12;11.80;99.90
31074;DHT22;17730;53.552;9.940;2023-03-24T04:52:38;11.80;99.90
31074;DHT22;17730;53.552;9.940;2023-03-24T04:55:14;11.80;99.90
31074;DHT22;17730;53.552;9.940;2023-03-24T04:57:45;11.80;99.90
31074;DHT22;17730;53.552;9.940;2023-03-24T05:00:10;11.80;99.90
31074;DHT22;17730;53.552;9.940;2023-03-24T05:02:37;11.80;99.90
31074;DHT22;17730;53.552;9.940;2023-03-24T05:05:02;11.80;99.90
31074;DHT22;17730;53.552;9.940;2023-03-24T05:07:28;11.80;99.90
31074;DHT22;17730;53.552;9.940;2023-03-24T05:09:53;11.80;99.90
31074;DHT22;17730;53.552;9.940;2023-03-24T05:12:19;11.80;99.90
31074;DHT22;17730;53.552;9.940;2023-03-24T05:14:45;11.80;99.90
31074;DHT22;17730;53.552;9.940;2023-03-24T05:17:10;11.80;99.90
31074;DHT22;17730;53.552;9.940;2023-03-24T05:19:36;11.80;99.90
31074;DHT22;17730;53.552;9.940;2023-03-24T05:22:01;11.90;99.90
31074;DHT22;17730;53.552;9.940;2023-03-24T05:24:27;11.90;99.90
31074;DHT22;17730;53.552;9.940;2023-03-24T05:26:52;11.90;99.90
31074;DHT22;17730;53.552;9.940;2023-03-24T05:29:18;11.90;99.90
31074;DHT22;17730;53.552;9.940;2023-03-24T05:31:43;11.90;99.90
31074;DHT22;17730;53.552;9.940;2023-03-24T05:34:09;12.00;99.90
31074;DHT22;17730;53.552;9.940;2023-03-24T05:36:35;12.00;99.90
31074;DHT22;17730;53.552;9.940;2023-03-24T05:39:00;12.00;99.90
31074;DHT22;17730;53.552;9.940;2023-03-24T05:41:25;12.00;99.90
31074;DHT22;17730;53.552;9.940;2023-03-24T05:43:51;12.00;99.90
31074;DHT22;17730;53.552;9.940;2023-03-24T05:46:16;12.00;99.90
31074;DHT22;17730;53.552;9.940;2023-03-24T05:48:42;12.00;99.90
31074;DHT22;17730;53.552;9.940;2023-03-24T05:51:07;12.10;99.90
31074;DHT22;17730;53.552;9.940;2023-03-24T05:53:33;12.10;99.90
31074;DHT22;17730;53.552;9.940;2023-03-24T05:55:58;12.10;99.90
31074;DHT22;17730;53.552;9.940;2023-03-24T05:58:24;12.10;99.90
31074;DHT22;17730;53.552;9.940;2023-03-24T06:00:49;12.20;99.90
31074;DHT22;17730;53.552;9.940;2023-03-24T06:03:15;12.20;99.90
31074;DHT22;17730;53.552;9.940;2023-03-24T06:05:41;12.20;99.90
31074;DHT22;17730;53.552;9.940;2023-03-24T06:08:10;12.20;99.90
31074;DHT22;17730;53.552;9.940;2023-03-24T06:10:36;12.20;99.90
31074;DHT22;17730;53.552;9.940;2023-03-24T06:13:01;12.20;99.90
31074;DHT22;17730;53.552;9.940;2023-03-24T06:15:27;12.20;99.90
31074;DHT22;17730;53.552;9.940;2023-03-24T06:17:53;12.30;99.90
31074;DHT22;17730;53.552;9.940;2023-03-24T06:20:19;12.30;99.90
31074;DHT22;17730;53.552;9.940;2023-03-24T06:22:45;12.30;99.90
31074;DHT22;17730;53.552;9.940;2023-03-24T06:25:12;12.30;99.90
31074;DHT22;17730;53.552;9.940;2023-03-24T06:27:43;12.30;99.90
31074;DHT22;17730;53.552;9.940;2023-03-24T06:30:11;12.30;99.90
31074;DHT22;17730;53.552;9.940;2023-03-24T06:32:36;12.40;99.90
31074;DHT22;17730;53.552;9.940;2023-03-24T06:35:02;12.40;99.90
31074;DHT22;17730;53.552;9.940;2023-03-24T06:37:28;12.40;99.90
31074;DHT22;17730;53.552;9.940;2023-03-24T06:39:53;12.40;99.90
31074;DHT22;17730;53.552;9.940;2023-03-24T06:42:19;12.50;99.90
31074;DHT22;17730;53.552;9.940;2023-03-24T06:44:44;12.50;99.90
31074;DHT22;17730;53.552;9.940;2023-03-24T06:47:10;12.50;99.90
31074;DHT22;17730;53.552;9.940;2023-03-24T06:49:36;12.50;99.90
31074;DHT22;17730;53.552;9.940;2023-03-24T06:52:02;12.50;99.90
31074;DHT22;17730;53.552;9.940;2023-03-24T06:54:28;12.50;99.90
31074;DHT22;17730;53.552;9.940;2023-03-24T06:56:53;12.50;99.90
31074;DHT22;17730;53.552;9.940;2023-03-24T06:59:18;12.60;99.90
31074;DHT22;17730;53.552;9.940;2023-03-24T07:01:48;12.60;99.90
31074;DHT22;17730;53.552;9.940;2023-03-24T07:04:14;12.70;99.90
31074;DHT22;17730;53.552;9.940;2023-03-24T07:06:40;12.70;99.90
31074;DHT22;17730;53.552;9.940;2023-03-24T07:09:06;12.60;99.90
31074;DHT22;17730;53.552;9.940;2023-03-24T07:11:32;12.60;99.90
31074;DHT22;17730;53.552;9.940;2023-03-24T07:13:57;12.70;99.90
31074;DHT22;17730;53.552;9.940;2023-03-24T07:16:23;12.60;94.00
31074;DHT22;17730;53.552;9.940;2023-03-24T07:18:48;12.50;1.00
31074;DHT22;17730;53.552;9.940;2023-03-24T07:21:14;12.40;99.90
31074;DHT22;17730;53.552;9.940;2023-03-24T07:23:39;12.50;99.90
31074;DHT22;17730;53.552;9.940;2023-03-24T07:26:05;12.60;99.90
31074;DHT22;17730;53.552;9.940;2023-03-24T07:28:30;12.70;1.00
31074;DHT22;17730;53.552;9.940;2023-03-24T07:30:56;12.80;99.90
31074;DHT22;17730;53.552;9.940;2023-03-24T07:33:21;12.80;29.40
31074;DHT22;17730;53.552;9.940;2023-03-24T07:35:52;12.80;99.90
31074;DHT22;17730;53.552;9.940;2023-03-24T07:38:18;12.90;30.60
31074;DHT22;17730;53.552;9.940;2023-03-24T07:40:43;12.70;99.90
31074;DHT22;17730;53.552;9.940;2023-03-24T07:43:09;12.70;99.90
31074;DHT22;17730;53.552;9.940;2023-03-24T07:45:35;12.70;1.00
31074;DHT22;17730;53.552;9.940;2023-03-24T07:48:00;12.60;99.90
31074;DHT22;17730;53.552;9.940;2023-03-24T07:50:27;12.80;99.90
31074;DHT22;17730;53.552;9.940;2023-03-24T07:52:52;13.00;99.90
31074;DHT22;17730;53.552;9.940;2023-03-24T07:55:18;13.10;1.00
31074;DHT22;17730;53.552;9.940;2023-03-24T07:57:46;12.90;99.90
31074;DHT22;17730;53.552;9.940;2023-03-24T08:00:12;12.70;1.00
31074;DHT22;17730;53.552;9.940;2023-03-24T08:02:45;12.50;72.80
31074;DHT22;17730;53.552;9.940;2023-03-24T08:05:11;12.40;99.90
31074;DHT22;17730;53.552;9.940;2023-03-24T08:07:42;12.40;77.00
31074;DHT22;17730;53.552;9.940;2023-03-24T08:10:09;12.40;99.90
31074;DHT22;17730;53.552;9.940;2023-03-24T08:12:34;12.30;19.00
31074;DHT22;17730;53.552;9.940;2023-03-24T08:15:00;12.50;1.00
31074;DHT22;17730;53.552;9.940;2023-03-24T08:17:26;12.70;10.80
31074;DHT22;17730;53.552;9.940;2023-03-24T08:19:51;12.90;99.90
31074;DHT22;17730;53.552;9.940;2023-03-24T08:22:17;13.10;99.90
31074;DHT22;17730;53.552;9.940;2023-03-24T08:24:42;13.60;99.90
31074;DHT22;17730;53.552;9.940;2023-03-24T08:27:08;13.80;90.00
31074;DHT22;17730;53.552;9.940;2023-03-24T08:29:34;13.50;20.00
31074;DHT22;17730;53.552;9.940;2023-03-24T08:32:00;13.30;1.00
31074;DHT22;17730;53.552;9.940;2023-03-24T08:34:26;13.20;1.00
31074;DHT22;17730;53.552;9.940;2023-03-24T08:36:52;13.00;1.00
31074;DHT22;17730;53.552;9.940;2023-03-24T08:39:17;13.00;99.90
31074;DHT22;17730;53.552;9.940;2023-03-24T08:41:43;12.90;99.90
31074;DHT22;17730;53.552;9.940;2023-03-24T08:44:09;13.00;99.90
31074;DHT22;17730;53.552;9.940;2023-03-24T08:46:35;13.00;1.00
31074;DHT22;17730;53.552;9.940;2023-03-24T08:49:01;13.10;99.90
31074;DHT22;17730;53.552;9.940;2023-03-24T08:51:27;13.00;99.90
31074;DHT22;17730;53.552;9.940;2023-03-24T08:53:53;13.10;99.90
31074;DHT22;17730;53.552;9.940;2023-03-24T08:56:19;13.30;99.90
31074;DHT22;17730;53.552;9.940;2023-03-24T08:58:45;13.40;42.80
31074;DHT22;17730;53.552;9.940;2023-03-24T09:01:13;13.20;99.90
31074;DHT22;17730;53.552;9.940;2023-03-24T09:03:38;13.20;99.90
31074;DHT22;17730;53.552;9.940;2023-03-24T09:06:04;13.30;99.90
31074;DHT22;17730;53.552;9.940;2023-03-24T09:08:30;13.00;1.00
31074;DHT22;17730;53.552;9.940;2023-03-24T09:10:55;12.90;99.90
31074;DHT22;17730;53.552;9.940;2023-03-24T09:13:21;12.90;99.90
31074;DHT22;17730;53.552;9.940;2023-03-24T09:15:47;12.70;99.90
31074;DHT22;17730;53.552;9.940;2023-03-24T09:18:13;12.70;99.90
31074;DHT22;17730;53.552;9.940;2023-03-24T09:20:40;12.70;99.90
31074;DHT22;17730;53.552;9.940;2023-03-24T09:23:05;12.60;99.90
31074;DHT22;17730;53.552;9.940;2023-03-24T09:25:31;12.50;1.00
31074;DHT22;17730;53.552;9.940;2023-03-24T09:27:56;12.50;1.00
31074;DHT22;17730;53.552;9.940;2023-03-24T09:30:22;12.50;99.90
31074;DHT22;17730;53.552;9.940;2023-03-24T09:32:47;12.50;1.00
31074;DHT22;17730;53.552;9.940;2023-03-24T09:35:13;12.60;99.90
31074;DHT22;17730;53.552;9.940;2023-03-24T09:37:39;12.60;99.90
31074;DHT22;17730;53.552;9.940;2023-03-24T09:40:06;12.50;99.90
31074;DHT22;17730;53.552;9.940;2023-03-24T09:42:33;12.50;99.90
31074;DHT22;17730;53.552;9.940;2023-03-24T09:45:02;12.60;1.00
31074;DHT22;17730;53.552;9.940;2023-03-24T09:47:30;12.80;99.90
31074;DHT22;17730;53.552;9.940;2023-03-24T09:49:57;13.30;99.90
31074;DHT22;17730;53.552;9.940;2023-03-24T09:52:31;13.60;1.00
31074;DHT22;17730;53.552;9.940;2023-03-24T09:54:58;13.40;14.00
31074;DHT22;17730;53.552;9.940;2023-03-24T09:57:39;13.30;60.00
31074;DHT22;17730;53.552;9.940;2023-03-24T10:02:48;13.10;99.90
31074;DHT22;17730;53.552;9.940;2023-03-24T10:13:05;13.00;99.90
31074;DHT22;17730;53.552;9.940;2023-03-24T10:15:33;13.20;99.90
31074;DHT22;17730;53.552;9.940;2023-03-24T10:20:39;13.80;98.40
31074;DHT22;17730;53.552;9.940;2023-03-24T10:25:55;14.20;1.00
31074;DHT22;17730;53.552;9.940;2023-03-24T10:28:36;14.30;99.90
31074;DHT22;17730;53.552;9.940;2023-03-24T10:31:09;14.30;99.90
31074;DHT22;17730;53.552;9.940;2023-03-24T10:33:37;14.20;1.00
31074;DHT22;17730;53.552;9.940;2023-03-24T10:36:10;14.20;1.00
31074;DHT22;17730;53.552;9.940;2023-03-24T10:38:37;14.30;99.90
31074;DHT22;17730;53.552;9.940;2023-03-24T10:41:03;14.20;99.90
31074;DHT22;17730;53.552;9.940;2023-03-24T10:43:29;14.10;99.90
31074;DHT22;17730;53.552;9.940;2023-03-24T10:45:55;14.10;99.90
31074;DHT22;17730;53.552;9.940;2023-03-24T10:48:34;14.40;1.00
31074;DHT22;17730;53.552;9.940;2023-03-24T10:51:05;14.50;99.90
31074;DHT22;17730;53.552;9.940;2023-03-24T10:53:31;14.40;99.90
31074;DHT22;17730;53.552;9.940;2023-03-24T10:55:58;14.30;99.90
31074;DHT22;17730;53.552;9.940;2023-03-24T11:00:52;14.10;99.90
31074;DHT22;17730;53.552;9.940;2023-03-24T11:03:23;14.30;99.90
31074;DHT22;17730;53.552;9.940;2023-03-24T11:05:55;14.30;99.90
31074;DHT22;17730;53.552;9.940;2023-03-24T11:08:26;14.30;99.90
31074;DHT22;17730;53.552;9.940;2023-03-24T11:10:53;14.40;99.90
31074;DHT22;17730;53.552;9.940;2023-03-24T11:13:29;14.70;99.90
31074;DHT22;17730;53.552;9.940;2023-03-24T11:16:12;15.10;99.90
31074;DHT22;17730;53.552;9.940;2023-03-24T11:19:24;15.20;99.90
31074;DHT22;17730;53.552;9.940;2023-03-24T11:21:26;15.50;99.90
31074;DHT22;17730;53.552;9.940;2023-03-24T11:23:52;15.90;87.20
31074;DHT22;17730;53.552;9.940;2023-03-24T11:26:19;16.10;59.90
31074;DHT22;17730;53.552;9.940;2023-03-24T11:28:52;16.40;43.70
31074;DHT22;17730;53.552;9.940;2023-03-24T11:31:24;16.50;6.00
31074;DHT22;17730;53.552;9.940;2023-03-24T11:33:54;16.40;1.00
31074;DHT22;17730;53.552;9.940;2023-03-24T11:39:08;16.10;1.00
31074;DHT22;17730;53.552;9.940;2023-03-24T11:41:35;16.10;7.30
31074;DHT22;17730;53.552;9.940;2023-03-24T11:44:07;16.20;10.70
31074;DHT22;17730;53.552;9.940;2023-03-24T11:46:38;16.50;4.10
31074;DHT22;17730;53.552;9.940;2023-03-24T11:49:05;16.60;1.00
31074;DHT22;17730;53.552;9.940;2023-03-24T11:51:36;16.40;1.00
31074;DHT22;17730;53.552;9.940;2023-03-24T11:54:04;15.80;1.00
31074;DHT22;17730;53.552;9.940;2023-03-24T11:56:33;15.40;1.00
31074;DHT22;17730;53.552;9.940;2023-03-24T11:59:24;15.40;68.10
31074;DHT22;17730;53.552;9.940;2023-03-24T12:04:45;16.00;22.00
31074;DHT22;17730;53.552;9.940;2023-03-24T12:17:20;15.20;63.30
31074;DHT22;17730;53.552;9.940;2023-03-24T12:33:02;14.40;99.90
31074;DHT22;17730;53.552;9.940;2023-03-24T12:35:35;14.40;99.90
31074;DHT22;17730;53.552;9.940;2023-03-24T12:40:43;14.40;99.90
31074;DHT22;17730;53.552;9.940;2023-03-24T12:51:01;14.00;99.90
31074;DHT22;17730;53.552;9.940;2023-03-24T13:04:12;14.50;99.90
31074;DHT22;17730;53.552;9.940;2023-03-24T13:07:02;14.40;99.90
31074;DHT22;17730;53.552;9.940;2023-03-24T13:12:02;14.70;54.60
31074;DHT22;17730;53.552;9.940;2023-03-24T13:17:15;15.30;1.00
31074;DHT22;17730;53.552;9.940;2023-03-24T13:19:42;15.70;1.00
31074;DHT22;17730;53.552;9.940;2023-03-24T13:22:13;16.00;1.00
31074;DHT22;17730;53.552;9.940;2023-03-24T13:24:39;16.10;1.00
31074;DHT22;17730;53.552;9.940;2023-03-24T13:27:08;16.00;99.90
31074;DHT22;17730;53.552;9.940;2023-03-24T13:37:37;15.50;99.90
31074;DHT22;17730;53.552;9.940;2023-03-24T13:40:16;15.20;1.00
31074;DHT22;17730;53.552;9.940;2023-03-24T13:42:44;14.90;1.00
31074;DHT22;17730;53.552;9.940;2023-03-24T13:50:38;14.80;99.90
31074;DHT22;17730;53.552;9.940;2023-03-24T13:53:06;14.80;99.90
31074;DHT22;17730;53.552;9.940;2023-03-24T13:55:37;14.70;99.90
31074;DHT22;17730;53.552;9.940;2023-03-24T13:58:23;14.50;99.90
31074;DHT22;17730;53.552;9.940;2023-03-24T14:03:32;15.10;99.90
31074;DHT22;17730;53.552;9.940;2023-03-24T14:13:52;15.90;99.90
31074;DHT22;17730;53.552;9.940;2023-03-24T14:19:35;17.00;1.00
31074;DHT22;17730;53.552;9.940;2023-03-24T14:24:26;16.20;99.90
31074;DHT22;17730;53.552;9.940;2023-03-24T14:26:52;16.10;99.90
31074;DHT22;17730;53.552;9.940;2023-03-24T14:32:02;16.50;1.00
31074;DHT22;17730;53.552;9.940;2023-03-24T14:34:27;16.50;99.90
31074;DHT22;17730;53.552;9.940;2023-03-24T14:36:57;16.80;99.90
31074;DHT22;17730;53.552;9.940;2023-03-24T14:41:55;16.40;99.90
31074;DHT22;17730;53.552;9.940;2023-03-24T14:49:52;15.60;99.90
31074;DHT22;17730;53.552;9.940;2023-03-24T14:52:19;15.50;99.90
31074;DHT22;17730;53.552;9.940;2023-03-24T14:54:52;15.40;99.90
31074;DHT22;17730;53.552;9.940;2023-03-24T14:59:48;15.40;99.90
31074;DHT22;17730;53.552;9.940;2023-03-24T15:02:27;15.30;99.90
31074;DHT22;17730;53.552;9.940;2023-03-24T15:07:38;15.20;99.90
31074;DHT22;17730;53.552;9.940;2023-03-24T15:10:06;15.20;99.90
31074;DHT22;17730;53.552;9.940;2023-03-24T15:12:41;15.20;99.90
31074;DHT22;17730;53.552;9.940;2023-03-24T15:15:12;15.20;99.90
31074;DHT22;17730;53.552;9.940;2023-03-24T15:17:39;15.20;99.90
31074;DHT22;17730;53.552;9.940;2023-03-24T15:20:17;15.30;99.90
31074;DHT22;17730;53.552;9.940;2023-03-24T15:22:44;15.30;99.90
31074;DHT22;17730;53.552;9.940;2023-03-24T15:25:10;15.30;99.90
31074;DHT22;17730;53.552;9.940;2023-03-24T15:27:36;15.30;99.90
31074;DHT22;17730;53.552;9.940;2023-03-24T15:30:13;15.30;99.90
31074;DHT22;17730;53.552;9.940;2023-03-24T15:32:39;15.20;99.90
31074;DHT22;17730;53.552;9.940;2023-03-24T15:35:20;15.10;99.90
31074;DHT22;17730;53.552;9.940;2023-03-24T15:37:50;15.20;99.90
31074;DHT22;17730;53.552;9.940;2023-03-24T15:40:38;15.10;99.90
31074;DHT22;17730;53.552;9.940;2023-03-24T15:43:03;15.00;99.90
31074;DHT22;17730;53.552;9.940;2023-03-24T15:45:33;14.90;99.90
31074;DHT22;17730;53.552;9.940;2023-03-24T15:48:04;14.70;99.90
31074;DHT22;17730;53.552;9.940;2023-03-24T15:50:35;14.70;99.90
31074;DHT22;17730;53.552;9.940;2023-03-24T15:55:43;14.70;99.90
31074;DHT22;17730;53.552;9.940;2023-03-24T15:58:22;14.80;99.90
31074;DHT22;17730;53.552;9.940;2023-03-24T16:00:48;14.80;99.90
31074;DHT22;17730;53.552;9.940;2023-03-24T16:03:15;14.80;99.90
31074;DHT22;17730;53.552;9.940;2023-03-24T16:05:46;14.80;99.90
31074;DHT22;17730;53.552;9.940;2023-03-24T16:10:55;14.80;99.90
31074;DHT22;17730;53.552;9.940;2023-03-24T16:13:22;14.80;99.90
31074;DHT22;17730;53.552;9.940;2023-03-24T16:15:58;14.80;99.90
31074;DHT22;17730;53.552;9.940;2023-03-24T16:18:26;14.80;99.90
31074;DHT22;17730;53.552;9.940;2023-03-24T16:20:53;14.80;99.90
31074;DHT22;17730;53.552;9.940;2023-03-24T16:23:19;14.70;99.90
31074;DHT22;17730;53.552;9.940;2023-03-24T16:25:44;14.70;99.90
31074;DHT22;17730;53.552;9.940;2023-03-24T16:28:14;14.70;1.00
31074;DHT22;17730;53.552;9.940;2023-03-24T16:30:40;14.70;1.00
31074;DHT22;17730;53.552;9.940;2023-03-24T16:33:07;14.70;1.00
31074;DHT22;17730;53.552;9.940;2023-03-24T16:35:33;14.60;1.00
31074;DHT22;17730;53.552;9.940;2023-03-24T16:37:58;14.50;1.00
31074;DHT22;17730;53.552;9.940;2023-03-24T16:42:56;14.30;1.00
31074;DHT22;17730;53.552;9.940;2023-03-24T16:45:23;14.20;1.00
31074;DHT22;17730;53.552;9.940;2023-03-24T16:47:49;14.10;1.00
31074;DHT22;17730;53.552;9.940;2023-03-24T16:52:46;13.90;1.00
31074;DHT22;17730;53.552;9.940;2023-03-24T16:55:12;13.90;8.00
31074;DHT22;17730;53.552;9.940;2023-03-24T16:57:37;13.80;16.50
31074;DHT22;17730;53.552;9.940;2023-03-24T17:00:03;13.70;27.90
31074;DHT22;17730;53.552;9.940;2023-03-24T17:02:34;13.70;45.30
31074;DHT22;17730;53.552;9.940;2023-03-24T17:05:08;13.60;54.50
31074;DHT22;17730;53.552;9.940;2023-03-24T17:07:36;13.60;69.20
31074;DHT22;17730;53.552;9.940;2023-03-24T17:10:01;13.60;76.80
31074;DHT22;17730;53.552;9.940;2023-03-24T17:12:27;13.60;91.50
31074;DHT22;17730;53.552;9.940;2023-03-24T17:14:53;13.60;93.40
31074;DHT22;17730;53.552;9.940;2023-03-24T17:17:19;13.60;99.60
31074;DHT22;17730;53.552;9.940;2023-03-24T17:19:44;13.50;99.90
31074;DHT22;17730;53.552;9.940;2023-03-24T17:22:12;13.50;99.90
31074;DHT22;17730;53.552;9.940;2023-03-24T17:24:41;13.50;99.90
31074;DHT22;17730;53.552;9.940;2023-03-24T17:27:16;13.40;99.90
31074;DHT22;17730;53.552;9.940;2023-03-24T17:29:45;13.50;99.90
31074;DHT22;17730;53.552;9.940;2023-03-24T17:32:11;13.30;99.90
31074;DHT22;17730;53.552;9.940;2023-03-24T17:34:36;13.30;99.90
31074;DHT22;17730;53.552;9.940;2023-03-24T17:37:02;13.10;99.90
31074;DHT22;17730;53.552;9.940;2023-03-24T17:39:28;12.90;1.00
31074;DHT22;17730;53.552;9.940;2023-03-24T17:41:53;12.80;1.00
31074;DHT22;17730;53.552;9.940;2023-03-24T17:44:21;12.60;73.40
31074;DHT22;17730;53.552;9.940;2023-03-24T17:46:47;12.50;99.90
31074;DHT22;17730;53.552;9.940;2023-03-24T17:49:12;12.40;99.90
31074;DHT22;17730;53.552;9.940;2023-03-24T17:51:38;12.40;99.90
31074;DHT22;17730;53.552;9.940;2023-03-24T17:54:03;12.30;99.90
31074;DHT22;17730;53.552;9.940;2023-03-24T17:56:30;12.20;99.90
31074;DHT22;17730;53.552;9.940;2023-03-24T17:58:56;12.10;99.90
31074;DHT22;17730;53.552;9.940;2023-03-24T18:01:23;12.10;99.90
31074;DHT22;17730;53.552;9.940;2023-03-24T18:03:48;11.90;99.90
31074;DHT22;17730;53.552;9.940;2023-03-24T18:06:14;11.90;99.90
31074;DHT22;17730;53.552;9.940;2023-03-24T18:08:41;11.80;99.90
31074;DHT22;17730;53.552;9.940;2023-03-24T18:11:13;11.80;99.90
31074;DHT22;17730;53.552;9.940;2023-03-24T18:13:39;11.60;99.90
31074;DHT22;17730;53.552;9.940;2023-03-24T18:16:05;11.70;99.90
31074;DHT22;17730;53.552;9.940;2023-03-24T18:18:35;11.60;99.90
31074;DHT22;17730;53.552;9.940;2023-03-24T18:21:02;11.60;99.90
31074;DHT22;17730;53.552;9.940;2023-03-24T18:23:27;11.50;99.90
31074;DHT22;17730;53.552;9.940;2023-03-24T18:26:00;11.50;99.90
31074;DHT22;17730;53.552;9.940;2023-03-24T18:28:26;11.40;99.90
31074;DHT22;17730;53.552;9.940;2023-03-24T18:30:52;11.30;99.90
31074;DHT22;17730;53.552;9.940;2023-03-24T18:33:17;11.30;1.00
31074;DHT22;17730;53.552;9.940;2023-03-24T18:35:50;11.20;1.00
31074;DHT22;17730;53.552;9.940;2023-03-24T18:38:16;11.10;51.90
31074;DHT22;17730;53.552;9.940;2023-03-24T18:40:47;11.10;99.90
31074;DHT22;17730;53.552;9.940;2023-03-24T18:43:12;11.10;99.90
31074;DHT22;17730;53.552;9.940;2023-03-24T18:45:37;11.10;99.90